Terminal Aerodrome Forecast
Issued by NWS

Home | Current Version | Previous Version | Text Only | Print | Product List | Glossary On
Versions: 1 2 3 4 5 6 7 8 9 10 11 12 13 14 15 16 17 18 19 20
000
FTUS46 KSGX 311700
TAFCRQ
TAF
KCRQ 311722Z 3118/0118 VRB05KT P6SM SCT200
     FM311900 26007KT P6SM SCT200
     FM010100 VRB05KT P6SM FEW007 SCT200
     FM010700 VRB03KT P6SM OVC007
     FM011300 VRB03KT P6SM OVC010
     FM011530 VRB03KT P6SM SCT013 SCT200=

USA.gov is the U.S. government's official web portal to all federal, state and local government web resources and services.